sensor_id;sensor_type;location;lat;lon;timestamp;P1;durP1;ratioP1;P2;durP2;ratioP2
16727;SDS011;8482;54.396;18.590;2024-03-02T16:33:50;22.23;;;13.00;;
16727;SDS011;8482;54.396;18.590;2024-03-02T16:36:16;20.17;;;12.82;;
16727;SDS011;8482;54.396;18.590;2024-03-02T16:38:43;19.80;;;12.30;;
16727;SDS011;8482;54.396;18.590;2024-03-02T16:41:09;22.70;;;12.43;;
16727;SDS011;8482;54.396;18.590;2024-03-02T16:43:35;20.30;;;12.15;;
16727;SDS011;8482;54.396;18.590;2024-03-02T16:46:03;20.70;;;13.25;;
16727;SDS011;8482;54.396;18.590;2024-03-02T16:48:30;21.08;;;12.98;;
16727;SDS011;8482;54.396;18.590;2024-03-02T16:50:57;20.52;;;12.32;;
16727;SDS011;8482;54.396;18.590;2024-03-02T16:53:23;21.15;;;13.25;;
16727;SDS011;8482;54.396;18.590;2024-03-02T16:55:49;19.60;;;12.70;;
16727;SDS011;8482;54.396;18.590;2024-03-02T16:58:18;23.05;;;13.57;;
16727;SDS011;8482;54.396;18.590;2024-03-02T17:00:44;20.92;;;13.43;;
16727;SDS011;8482;54.396;18.590;2024-03-02T17:03:10;21.75;;;12.70;;
16727;SDS011;8482;54.396;18.590;2024-03-02T17:05:36;19.23;;;12.07;;
16727;SDS011;8482;54.396;18.590;2024-03-02T17:08:02;22.80;;;14.57;;
16727;SDS011;8482;54.396;18.590;2024-03-02T17:10:28;20.00;;;12.88;;
16727;SDS011;8482;54.396;18.590;2024-03-02T17:12:54;21.27;;;13.18;;
16727;SDS011;8482;54.396;18.590;2024-03-02T17:15:20;21.38;;;13.50;;
16727;SDS011;8482;54.396;18.590;2024-03-02T17:17:47;21.55;;;12.45;;
16727;SDS011;8482;54.396;18.590;2024-03-02T17:20:13;22.50;;;13.93;;
16727;SDS011;8482;54.396;18.590;2024-03-02T17:22:40;19.40;;;11.85;;
16727;SDS011;8482;54.396;18.590;2024-03-02T17:25:06;20.75;;;12.32;;
16727;SDS011;8482;54.396;18.590;2024-03-02T17:27:32;19.58;;;12.20;;
16727;SDS011;8482;54.396;18.590;2024-03-02T17:29:59;20.52;;;11.98;;
16727;SDS011;8482;54.396;18.590;2024-03-02T17:32:25;21.90;;;12.90;;
16727;SDS011;8482;54.396;18.590;2024-03-02T17:34:50;21.45;;;13.15;;
16727;SDS011;8482;54.396;18.590;2024-03-02T17:37:16;20.50;;;12.52;;
16727;SDS011;8482;54.396;18.590;2024-03-02T17:39:42;20.05;;;13.43;;
16727;SDS011;8482;54.396;18.590;2024-03-02T17:42:10;21.33;;;12.85;;
16727;SDS011;8482;54.396;18.590;2024-03-02T17:44:36;21.88;;;13.40;;
16727;SDS011;8482;54.396;18.590;2024-03-02T17:47:02;22.48;;;13.52;;
16727;SDS011;8482;54.396;18.590;2024-03-02T17:49:31;22.65;;;14.20;;
16727;SDS011;8482;54.396;18.590;2024-03-02T17:51:57;24.80;;;14.38;;
16727;SDS011;8482;54.396;18.590;2024-03-02T17:54:23;23.95;;;15.02;;
16727;SDS011;8482;54.396;18.590;2024-03-02T17:56:48;25.23;;;14.85;;
16727;SDS011;8482;54.396;18.590;2024-03-02T17:59:14;24.55;;;14.18;;
16727;SDS011;8482;54.396;18.590;2024-03-02T18:01:40;24.17;;;15.10;;
16727;SDS011;8482;54.396;18.590;2024-03-02T18:04:06;23.80;;;15.43;;
16727;SDS011;8482;54.396;18.590;2024-03-02T18:06:32;19.77;;;13.32;;
16727;SDS011;8482;54.396;18.590;2024-03-02T18:08:59;24.48;;;13.80;;
16727;SDS011;8482;54.396;18.590;2024-03-02T18:11:26;23.73;;;14.80;;
16727;SDS011;8482;54.396;18.590;2024-03-02T18:13:52;25.40;;;15.82;;
16727;SDS011;8482;54.396;18.590;2024-03-02T18:16:18;23.60;;;14.45;;
16727;SDS011;8482;54.396;18.590;2024-03-02T18:18:45;24.13;;;15.93;;
16727;SDS011;8482;54.396;18.590;2024-03-02T18:21:13;22.48;;;14.75;;
16727;SDS011;8482;54.396;18.590;2024-03-02T18:23:39;25.58;;;15.20;;
16727;SDS011;8482;54.396;18.590;2024-03-02T18:26:05;24.38;;;14.98;;
16727;SDS011;8482;54.396;18.590;2024-03-02T18:28:31;23.17;;;15.00;;
16727;SDS011;8482;54.396;18.590;2024-03-02T18:30:57;25.45;;;15.40;;
16727;SDS011;8482;54.396;18.590;2024-03-02T18:33:24;23.10;;;14.88;;
16727;SDS011;8482;54.396;18.590;2024-03-02T18:35:50;23.63;;;15.27;;
16727;SDS011;8482;54.396;18.590;2024-03-02T18:38:16;23.20;;;14.15;;
16727;SDS011;8482;54.396;18.590;2024-03-02T18:40:42;25.35;;;15.85;;
16727;SDS011;8482;54.396;18.590;2024-03-02T18:43:12;24.35;;;15.18;;
16727;SDS011;8482;54.396;18.590;2024-03-02T18:45:38;24.45;;;15.90;;
16727;SDS011;8482;54.396;18.590;2024-03-02T18:48:06;22.52;;;15.07;;
16727;SDS011;8482;54.396;18.590;2024-03-02T18:50:57;24.60;;;16.27;;
16727;SDS011;8482;54.396;18.590;2024-03-02T18:53:24;25.50;;;15.45;;
16727;SDS011;8482;54.396;18.590;2024-03-02T18:55:58;23.05;;;14.93;;
16727;SDS011;8482;54.396;18.590;2024-03-02T18:58:29;24.60;;;16.17;;
16727;SDS011;8482;54.396;18.590;2024-03-02T19:01:25;24.15;;;14.82;;
16727;SDS011;8482;54.396;18.590;2024-03-02T19:03:57;25.95;;;16.48;;
16727;SDS011;8482;54.396;18.590;2024-03-02T19:06:29;23.45;;;14.95;;
16727;SDS011;8482;54.396;18.590;2024-03-02T19:08:55;26.55;;;16.70;;
16727;SDS011;8482;54.396;18.590;2024-03-02T19:11:22;24.85;;;15.73;;
16727;SDS011;8482;54.396;18.590;2024-03-02T19:13:48;26.13;;;15.90;;
16727;SDS011;8482;54.396;18.590;2024-03-02T19:16:15;26.17;;;16.20;;
16727;SDS011;8482;54.396;18.590;2024-03-02T19:18:42;26.33;;;16.23;;
16727;SDS011;8482;54.396;18.590;2024-03-02T19:21:09;24.42;;;15.05;;
16727;SDS011;8482;54.396;18.590;2024-03-02T19:23:35;24.10;;;14.88;;
16727;SDS011;8482;54.396;18.590;2024-03-02T19:26:03;27.35;;;16.60;;
16727;SDS011;8482;54.396;18.590;2024-03-02T19:28:49;25.35;;;15.93;;
16727;SDS011;8482;54.396;18.590;2024-03-02T19:31:15;25.15;;;15.70;;
16727;SDS011;8482;54.396;18.590;2024-03-02T19:33:41;24.85;;;16.15;;
16727;SDS011;8482;54.396;18.590;2024-03-02T19:36:07;29.50;;;16.30;;
16727;SDS011;8482;54.396;18.590;2024-03-02T19:38:33;24.73;;;16.25;;
16727;SDS011;8482;54.396;18.590;2024-03-02T19:41:00;23.27;;;14.57;;
16727;SDS011;8482;54.396;18.590;2024-03-02T19:43:34;23.77;;;14.50;;
16727;SDS011;8482;54.396;18.590;2024-03-02T19:46:00;24.27;;;15.43;;
16727;SDS011;8482;54.396;18.590;2024-03-02T19:48:26;25.75;;;15.50;;
16727;SDS011;8482;54.396;18.590;2024-03-02T19:50:53;26.60;;;15.20;;
16727;SDS011;8482;54.396;18.590;2024-03-02T19:53:23;23.48;;;14.45;;
16727;SDS011;8482;54.396;18.590;2024-03-02T19:55:50;25.35;;;15.00;;
16727;SDS011;8482;54.396;18.590;2024-03-02T19:58:17;23.65;;;15.48;;
16727;SDS011;8482;54.396;18.590;2024-03-02T20:00:49;24.17;;;14.88;;
16727;SDS011;8482;54.396;18.590;2024-03-02T20:03:18;25.77;;;15.35;;
16727;SDS011;8482;54.396;18.590;2024-03-02T20:05:45;24.05;;;14.75;;
16727;SDS011;8482;54.396;18.590;2024-03-02T20:08:10;21.73;;;14.20;;
16727;SDS011;8482;54.396;18.590;2024-03-02T20:10:36;22.92;;;14.05;;
16727;SDS011;8482;54.396;18.590;2024-03-02T20:13:02;25.08;;;15.23;;
16727;SDS011;8482;54.396;18.590;2024-03-02T20:15:34;23.23;;;14.52;;
16727;SDS011;8482;54.396;18.590;2024-03-02T20:17:59;25.02;;;15.52;;
16727;SDS011;8482;54.396;18.590;2024-03-02T20:20:26;25.98;;;14.68;;
16727;SDS011;8482;54.396;18.590;2024-03-02T20:22:52;21.75;;;15.02;;
16727;SDS011;8482;54.396;18.590;2024-03-02T20:25:18;24.50;;;14.90;;
16727;SDS011;8482;54.396;18.590;2024-03-02T20:27:44;25.27;;;15.60;;
16727;SDS011;8482;54.396;18.590;2024-03-02T20:30:10;24.33;;;15.32;;
16727;SDS011;8482;54.396;18.590;2024-03-02T20:32:37;23.90;;;14.70;;
16727;SDS011;8482;54.396;18.590;2024-03-02T20:35:04;24.40;;;14.88;;
16727;SDS011;8482;54.396;18.590;2024-03-02T20:37:30;25.42;;;15.02;;
16727;SDS011;8482;54.396;18.590;2024-03-02T20:39:56;22.35;;;14.02;;
16727;SDS011;8482;54.396;18.590;2024-03-02T20:42:24;25.55;;;14.65;;
16727;SDS011;8482;54.396;18.590;2024-03-02T20:44:53;25.35;;;15.52;;
16727;SDS011;8482;54.396;18.590;2024-03-02T20:47:19;26.02;;;17.13;;
16727;SDS011;8482;54.396;18.590;2024-03-02T20:49:47;26.20;;;15.25;;
16727;SDS011;8482;54.396;18.590;2024-03-02T20:52:15;22.98;;;15.07;;
16727;SDS011;8482;54.396;18.590;2024-03-02T20:54:44;26.48;;;14.85;;
16727;SDS011;8482;54.396;18.590;2024-03-02T20:57:10;23.80;;;14.55;;
16727;SDS011;8482;54.396;18.590;2024-03-02T20:59:37;22.48;;;14.75;;
16727;SDS011;8482;54.396;18.590;2024-03-02T21:02:03;22.65;;;14.20;;
16727;SDS011;8482;54.396;18.590;2024-03-02T21:04:29;26.98;;;15.80;;
16727;SDS011;8482;54.396;18.590;2024-03-02T21:06:55;24.60;;;14.52;;
16727;SDS011;8482;54.396;18.590;2024-03-02T21:09:21;27.33;;;16.25;;
16727;SDS011;8482;54.396;18.590;2024-03-02T21:11:46;25.30;;;15.18;;
16727;SDS011;8482;54.396;18.590;2024-03-02T21:14:13;24.45;;;15.02;;
16727;SDS011;8482;54.396;18.590;2024-03-02T21:16:39;26.55;;;15.27;;
16727;SDS011;8482;54.396;18.590;2024-03-02T21:19:08;26.15;;;15.90;;
16727;SDS011;8482;54.396;18.590;2024-03-02T21:21:36;29.45;;;17.15;;
16727;SDS011;8482;54.396;18.590;2024-03-02T21:24:04;25.15;;;15.85;;
16727;SDS011;8482;54.396;18.590;2024-03-02T21:26:31;24.88;;;16.23;;
16727;SDS011;8482;54.396;18.590;2024-03-02T21:28:57;25.15;;;15.82;;
16727;SDS011;8482;54.396;18.590;2024-03-02T21:31:22;26.27;;;15.95;;
16727;SDS011;8482;54.396;18.590;2024-03-02T21:33:48;25.13;;;15.07;;
16727;SDS011;8482;54.396;18.590;2024-03-02T21:36:14;25.17;;;14.95;;
16727;SDS011;8482;54.396;18.590;2024-03-02T21:38:40;27.15;;;15.45;;
16727;SDS011;8482;54.396;18.590;2024-03-02T21:41:13;23.80;;;15.45;;
16727;SDS011;8482;54.396;18.590;2024-03-02T21:43:39;25.05;;;15.30;;
16727;SDS011;8482;54.396;18.590;2024-03-02T21:46:09;26.33;;;15.40;;
16727;SDS011;8482;54.396;18.590;2024-03-02T21:48:38;23.73;;;14.23;;
16727;SDS011;8482;54.396;18.590;2024-03-02T21:51:04;24.88;;;15.38;;
16727;SDS011;8482;54.396;18.590;2024-03-02T21:53:30;22.67;;;14.77;;
16727;SDS011;8482;54.396;18.590;2024-03-02T21:55:56;23.63;;;14.93;;
16727;SDS011;8482;54.396;18.590;2024-03-02T21:58:22;26.25;;;15.63;;
16727;SDS011;8482;54.396;18.590;2024-03-02T22:00:48;27.63;;;15.98;;
16727;SDS011;8482;54.396;18.590;2024-03-02T22:03:14;24.25;;;15.05;;
16727;SDS011;8482;54.396;18.590;2024-03-02T22:05:39;23.38;;;14.80;;
16727;SDS011;8482;54.396;18.590;2024-03-02T22:08:06;27.40;;;16.02;;
16727;SDS011;8482;54.396;18.590;2024-03-02T22:10:32;24.20;;;14.88;;
16727;SDS011;8482;54.396;18.590;2024-03-02T22:12:58;27.10;;;15.50;;
16727;SDS011;8482;54.396;18.590;2024-03-02T22:15:25;22.55;;;14.32;;
16727;SDS011;8482;54.396;18.590;2024-03-02T22:17:51;26.50;;;15.48;;
16727;SDS011;8482;54.396;18.590;2024-03-02T22:20:17;29.35;;;15.70;;
16727;SDS011;8482;54.396;18.590;2024-03-02T22:22:43;25.98;;;14.63;;
16727;SDS011;8482;54.396;18.590;2024-03-02T22:25:09;24.67;;;14.57;;
16727;SDS011;8482;54.396;18.590;2024-03-02T22:27:35;25.65;;;15.20;;
16727;SDS011;8482;54.396;18.590;2024-03-02T22:30:05;25.10;;;15.73;;
16727;SDS011;8482;54.396;18.590;2024-03-02T22:32:32;25.20;;;15.00;;
16727;SDS011;8482;54.396;18.590;2024-03-02T22:34:58;25.75;;;14.52;;
16727;SDS011;8482;54.396;18.590;2024-03-02T22:37:23;23.35;;;15.05;;
16727;SDS011;8482;54.396;18.590;2024-03-02T22:39:49;23.48;;;15.27;;
16727;SDS011;8482;54.396;18.590;2024-03-02T22:42:15;24.08;;;14.32;;
16727;SDS011;8482;54.396;18.590;2024-03-02T22:44:41;27.80;;;16.15;;
16727;SDS011;8482;54.396;18.590;2024-03-02T22:47:07;28.00;;;15.77;;
16727;SDS011;8482;54.396;18.590;2024-03-02T22:49:33;28.00;;;15.38;;
16727;SDS011;8482;54.396;18.590;2024-03-02T22:51:58;25.55;;;14.52;;
16727;SDS011;8482;54.396;18.590;2024-03-02T22:54:24;24.73;;;14.93;;
16727;SDS011;8482;54.396;18.590;2024-03-02T22:56:50;26.35;;;14.98;;
16727;SDS011;8482;54.396;18.590;2024-03-02T22:59:16;25.88;;;15.77;;
16727;SDS011;8482;54.396;18.590;2024-03-02T23:01:42;27.17;;;15.75;;
16727;SDS011;8482;54.396;18.590;2024-03-02T23:04:09;26.00;;;15.02;;
16727;SDS011;8482;54.396;18.590;2024-03-02T23:06:35;25.25;;;14.98;;
16727;SDS011;8482;54.396;18.590;2024-03-02T23:09:01;24.25;;;13.73;;
16727;SDS011;8482;54.396;18.590;2024-03-02T23:11:28;24.02;;;14.35;;
16727;SDS011;8482;54.396;18.590;2024-03-02T23:13:54;26.63;;;14.80;;
16727;SDS011;8482;54.396;18.590;2024-03-02T23:16:20;24.33;;;14.23;;
16727;SDS011;8482;54.396;18.590;2024-03-02T23:18:46;22.85;;;13.23;;
16727;SDS011;8482;54.396;18.590;2024-03-02T23:21:11;23.40;;;14.55;;
16727;SDS011;8482;54.396;18.590;2024-03-02T23:23:38;25.83;;;14.95;;
16727;SDS011;8482;54.396;18.590;2024-03-02T23:26:03;27.00;;;13.20;;
16727;SDS011;8482;54.396;18.590;2024-03-02T23:28:31;23.45;;;13.82;;
16727;SDS011;8482;54.396;18.590;2024-03-02T23:30:58;22.48;;;13.98;;
16727;SDS011;8482;54.396;18.590;2024-03-02T23:33:24;25.23;;;14.65;;
16727;SDS011;8482;54.396;18.590;2024-03-02T23:35:50;24.10;;;13.88;;
16727;SDS011;8482;54.396;18.590;2024-03-02T23:38:15;24.40;;;14.68;;
16727;SDS011;8482;54.396;18.590;2024-03-02T23:40:41;24.77;;;14.20;;
16727;SDS011;8482;54.396;18.590;2024-03-02T23:43:27;22.25;;;13.73;;
